Terminal Aerodrome Forecast
Issued by NWS

Current Version | Previous Version | Text Only | Print | Product List | Glossary On
Versions: 1 2 3 4 5 6 7 8 9 10 11 12 13 14 15
000
FTUS44 KLZK 170500
TAFADF
TAF
KADF 170530Z 1706/1806 VRB03KT P6SM SCT020
     FM170900 00000KT 3SM BR SCT015
      TEMPO 1710/1713 1SM BR OVC010
     FM171500 12003KT P6SM SCT020
     FM171800 21004KT P6SM SCT035
     FM180000 VRB03KT P6SM BKN250=

USA.gov is the U.S. government's official web portal to all federal, state and local government web resources and services.